createdAt,value
2022-12-05T00:01:23.848Z,6.22
2022-12-05T00:03:53.463Z,6.93
2022-12-05T00:06:21.396Z,6.40
2022-12-05T00:08:49.040Z,7.80
2022-12-05T00:11:25.261Z,6.57
2022-12-05T00:13:53.732Z,6.03
2022-12-05T00:16:23.818Z,5.43
2022-12-05T00:18:51.214Z,6.18
2022-12-05T00:21:24.185Z,5.55
2022-12-05T00:23:52.826Z,5.25
2022-12-05T00:26:20.364Z,4.57
2022-12-05T00:28:47.334Z,4.72
2022-12-05T00:31:17.544Z,5.38
2022-12-05T00:33:45.675Z,6.00
2022-12-05T00:36:16.691Z,6.18
2022-12-05T00:38:43.712Z,6.90
2022-12-05T00:41:13.387Z,7.43
2022-12-05T00:43:41.293Z,6.57
2022-12-05T00:46:11.431Z,6.50
2022-12-05T00:48:39.002Z,7.85
2022-12-05T00:51:12.423Z,6.95
2022-12-05T00:53:40.034Z,5.28
2022-12-05T00:56:10.117Z,5.75
2022-12-05T00:58:37.379Z,4.53
2022-12-05T01:01:10.354Z,6.60
2022-12-05T01:03:37.995Z,6.13
2022-12-05T01:06:08.670Z,6.45
2022-12-05T01:08:35.901Z,5.68
2022-12-05T01:11:04.755Z,5.57
2022-12-05T01:13:32.566Z,5.75
2022-12-05T01:15:59.573Z,5.95
2022-12-05T01:18:27.677Z,7.45
2022-12-05T01:20:55.537Z,5.93
2022-12-05T01:23:23.063Z,5.88
2022-12-05T01:25:52.272Z,6.38
2022-12-05T01:28:19.804Z,7.10
2022-12-05T01:30:49.018Z,6.82
2022-12-05T01:33:16.814Z,5.68
2022-12-05T01:35:43.999Z,8.35
2022-12-05T01:38:12.740Z,5.97
2022-12-05T01:40:40.258Z,6.72
2022-12-05T01:43:15.670Z,7.50
2022-12-05T01:45:45.066Z,6.78
2022-12-05T01:48:20.111Z,7.82
2022-12-05T01:50:49.123Z,8.27
2022-12-05T01:53:16.958Z,7.63
2022-12-05T01:55:45.608Z,6.90
2022-12-05T01:58:12.644Z,7.68
2022-12-05T02:00:42.061Z,6.85
2022-12-05T02:03:14.222Z,9.45
2022-12-05T02:05:41.685Z,5.47
2022-12-05T02:08:10.745Z,5.25
2022-12-05T02:10:44.934Z,5.35
2022-12-05T02:13:27.998Z,7.72
2022-12-05T02:16:11.918Z,5.05
2022-12-05T02:18:56.406Z,5.93
2022-12-05T02:21:39.599Z,5.15
2022-12-05T02:24:37.246Z,5.82
2022-12-05T02:27:06.754Z,6.85
2022-12-05T02:29:56.749Z,6.15
2022-12-05T02:32:32.708Z,5.28
2022-12-05T02:35:28.168Z,6.90
2022-12-05T02:38:08.637Z,6.32
2022-12-05T02:40:47.888Z,5.75
2022-12-05T02:43:23.259Z,6.63
2022-12-05T02:45:55.286Z,6.72
2022-12-05T02:48:23.969Z,6.70
2022-12-05T02:50:52.612Z,8.90
2022-12-05T02:53:21.563Z,11.70
2022-12-05T02:55:48.876Z,7.60
2022-12-05T02:58:23.624Z,7.47
2022-12-05T03:00:54.433Z,8.00
2022-12-05T03:03:22.678Z,7.88
2022-12-05T03:05:58.194Z,8.30
2022-12-05T03:08:31.612Z,11.13
2022-12-05T03:11:00.986Z,10.43
2022-12-05T03:13:51.209Z,8.73
2022-12-05T03:16:31.680Z,11.35
2022-12-05T03:19:03.278Z,7.95
2022-12-05T03:21:30.080Z,7.80
2022-12-05T03:24:01.826Z,8.63
2022-12-05T03:26:42.528Z,14.07
2022-12-05T03:29:28.439Z,16.45
2022-12-05T03:32:01.217Z,15.55
2022-12-05T03:34:43.061Z,15.23
2022-12-05T03:37:18.587Z,16.95
2022-12-05T03:39:52.852Z,16.83
2022-12-05T03:42:28.874Z,16.73
2022-12-05T03:45:11.902Z,15.93
2022-12-05T03:47:38.669Z,18.90
2022-12-05T03:50:19.786Z,15.95
2022-12-05T03:53:18.496Z,14.35
2022-12-05T03:55:44.890Z,14.85
2022-12-05T03:58:22.711Z,12.85
2022-12-05T04:00:53.026Z,11.27
2022-12-05T04:03:42.379Z,11.48
2022-12-05T04:06:25.060Z,11.13
2022-12-05T04:08:57.431Z,13.45
2022-12-05T04:11:27.268Z,8.52
2022-12-05T04:14:01.666Z,15.60
2022-12-05T04:16:57.108Z,16.80
2022-12-05T04:19:28.611Z,11.60
2022-12-05T04:21:57.292Z,11.77
2022-12-05T04:24:46.839Z,12.57
2022-12-05T04:27:13.650Z,13.50
2022-12-05T04:29:50.875Z,15.93
2022-12-05T04:32:19.320Z,12.35
2022-12-05T04:34:54.832Z,12.80
2022-12-05T04:37:24.663Z,13.20
2022-12-05T04:39:59.063Z,12.05
2022-12-05T04:42:29.221Z,12.93
2022-12-05T04:45:06.836Z,13.60
2022-12-05T04:47:40.930Z,11.90
2022-12-05T04:50:10.776Z,15.10
2022-12-05T04:52:39.544Z,15.43
2022-12-05T04:55:12.021Z,19.20
2022-12-05T04:57:51.239Z,24.58
2022-12-05T05:00:18.532Z,28.17
2022-12-05T05:02:52.589Z,25.98
2022-12-05T05:05:20.903Z,30.35
2022-12-05T05:07:51.052Z,35.80
2022-12-05T05:10:39.888Z,34.05
2022-12-05T05:13:06.688Z,23.17
2022-12-05T05:15:33.573Z,24.00
2022-12-05T05:18:00.400Z,22.42
2022-12-05T05:20:27.616Z,21.92
2022-12-05T05:22:56.244Z,23.33
2022-12-05T05:25:23.673Z,22.48
2022-12-05T05:27:52.524Z,22.20
2022-12-05T05:30:20.840Z,29.27
2022-12-05T05:32:47.867Z,31.75
2022-12-05T05:35:15.296Z,26.70
2022-12-05T05:37:42.512Z,29.83
2022-12-05T05:40:11.925Z,35.88
2022-12-05T05:42:44.156Z,35.72
2022-12-05T05:47:38.012Z,44.90
2022-12-05T05:50:05.808Z,44.10
2022-12-05T05:52:34.429Z,43.05
2022-12-05T05:55:01.693Z,33.95
2022-12-05T05:57:28.656Z,46.42
2022-12-05T05:59:55.623Z,49.47
2022-12-05T06:02:22.904Z,37.80
2022-12-05T06:04:49.842Z,28.35
2022-12-05T06:07:16.856Z,28.17
2022-12-05T06:09:43.635Z,27.23
2022-12-05T06:12:10.554Z,24.30
2022-12-05T06:14:37.368Z,22.17
2022-12-05T06:17:05.219Z,27.52
2022-12-05T06:19:32.098Z,24.85
2022-12-05T06:21:58.987Z,19.42
2022-12-05T06:24:26.003Z,17.75
2022-12-05T06:26:52.853Z,21.30
2022-12-05T06:29:22.850Z,22.20
2022-12-05T06:31:52.297Z,15.93
2022-12-05T06:34:19.195Z,12.27
2022-12-05T06:36:46.031Z,14.07
2022-12-05T06:39:12.885Z,13.48
2022-12-05T06:41:39.978Z,12.25
2022-12-05T06:44:06.803Z,15.02
2022-12-05T06:46:33.581Z,15.20
2022-12-05T06:49:00.648Z,15.68
2022-12-05T06:51:27.614Z,16.85
2022-12-05T06:53:55.765Z,15.77
2022-12-05T06:56:22.603Z,18.52
2022-12-05T06:58:52.512Z,25.67
2022-12-05T07:01:41.192Z,25.83
2022-12-05T07:04:13.058Z,23.40
2022-12-05T07:06:46.105Z,23.52
2022-12-05T07:09:14.364Z,23.38
2022-12-05T07:11:41.206Z,25.40
2022-12-05T07:14:19.087Z,23.13
2022-12-05T07:16:51.828Z,17.42
2022-12-05T07:19:18.794Z,19.65
2022-12-05T07:21:45.580Z,16.65
2022-12-05T07:24:12.384Z,16.05
2022-12-05T07:26:39.219Z,12.98
2022-12-05T07:29:06.371Z,11.70
2022-12-05T07:31:34.199Z,12.50
2022-12-05T07:34:01.073Z,9.55
2022-12-05T07:36:28.065Z,9.57
2022-12-05T07:38:57.764Z,11.70
2022-12-05T07:41:30.112Z,8.65
2022-12-05T07:43:58.514Z,7.75
2022-12-05T07:46:27.165Z,7.93
2022-12-05T07:48:54.807Z,8.85
2022-12-05T07:51:22.070Z,9.80
2022-12-05T07:53:49.184Z,8.65
2022-12-05T07:56:17.648Z,6.88
2022-12-05T07:58:46.944Z,8.43
2022-12-05T08:01:16.866Z,9.20
2022-12-05T08:03:44.230Z,7.70
2022-12-05T08:06:14.134Z,6.93
2022-12-05T08:08:41.333Z,9.00
2022-12-05T08:11:20.717Z,8.88
2022-12-05T08:13:48.412Z,6.28
2022-12-05T08:16:18.620Z,7.88
2022-12-05T08:18:46.147Z,8.65
2022-12-05T08:21:18.512Z,6.35
2022-12-05T08:23:46.111Z,9.40
2022-12-05T08:26:21.086Z,7.38
2022-12-05T08:28:52.768Z,8.15
2022-12-05T08:31:21.248Z,8.20
2022-12-05T08:33:48.123Z,10.63
2022-12-05T08:36:16.160Z,10.35
2022-12-05T08:38:44.085Z,13.48
2022-12-05T08:41:13.904Z,12.63
2022-12-05T08:43:41.043Z,9.18
2022-12-05T08:46:08.137Z,7.70
2022-12-05T08:48:35.698Z,9.32
2022-12-05T08:51:07.857Z,7.65
2022-12-05T08:53:40.922Z,9.40
2022-12-05T08:56:11.247Z,6.93
2022-12-05T08:58:38.766Z,8.50
2022-12-05T09:01:09.989Z,7.68
2022-12-05T09:03:36.953Z,8.40
2022-12-05T09:06:21.675Z,8.35
2022-12-05T09:08:49.672Z,7.95
2022-12-05T09:11:23.964Z,11.45
2022-12-05T09:13:52.700Z,9.65
2022-12-05T09:16:25.198Z,8.38
2022-12-05T09:18:52.946Z,7.95
2022-12-05T09:21:24.752Z,8.57
2022-12-05T09:23:52.572Z,9.05
2022-12-05T09:26:24.896Z,8.55
2022-12-05T09:28:52.431Z,7.18
2022-12-05T09:31:25.427Z,6.47
2022-12-05T09:33:53.324Z,7.40
2022-12-05T09:36:23.533Z,4.97
2022-12-05T09:38:51.677Z,5.95
2022-12-05T09:42:04.858Z,15.48
2022-12-05T09:44:50.301Z,6.85
2022-12-05T09:47:23.868Z,5.55
2022-12-05T09:49:57.591Z,10.23
2022-12-05T09:52:37.850Z,5.85
2022-12-05T09:55:14.862Z,12.80
2022-12-05T09:57:50.235Z,9.70
2022-12-05T10:00:17.485Z,13.80
2022-12-05T10:03:06.675Z,10.38
2022-12-05T10:06:07.039Z,16.60
2022-12-05T10:08:38.615Z,11.13
2022-12-05T10:11:14.313Z,7.22
2022-12-05T10:14:03.019Z,9.43
2022-12-05T10:16:35.240Z,10.93
2022-12-05T10:19:13.219Z,12.43
2022-12-05T10:21:56.725Z,13.32
2022-12-05T10:24:30.199Z,11.82
2022-12-05T10:27:03.155Z,12.25
2022-12-05T10:29:34.045Z,12.13
2022-12-05T10:32:20.059Z,14.75
2022-12-05T10:34:47.184Z,16.30
2022-12-05T10:37:19.674Z,7.50
2022-12-05T10:39:48.013Z,6.40
2022-12-05T10:42:25.420Z,7.55
2022-12-05T10:45:02.976Z,9.63
2022-12-05T10:47:31.718Z,9.48
2022-12-05T10:50:04.861Z,7.25
2022-12-05T10:52:32.400Z,5.45
2022-12-05T10:55:04.169Z,5.35
2022-12-05T10:57:31.238Z,6.72
2022-12-05T10:59:58.605Z,6.28
2022-12-05T11:02:31.472Z,6.25
2022-12-05T11:04:59.943Z,5.65
2022-12-05T11:07:49.650Z,5.30
2022-12-05T11:10:27.220Z,5.43
2022-12-05T11:12:57.697Z,6.28
2022-12-05T11:15:28.192Z,7.07
2022-12-05T11:17:57.768Z,5.85
2022-12-05T11:20:25.172Z,5.88
2022-12-05T11:22:56.576Z,7.55
2022-12-05T11:25:30.207Z,6.25
2022-12-05T11:28:18.610Z,5.03
2022-12-05T11:30:57.758Z,8.20
2022-12-05T11:33:27.743Z,9.10
2022-12-05T11:35:58.793Z,5.63
2022-12-05T11:38:28.587Z,6.88
2022-12-05T11:41:19.813Z,7.32
2022-12-05T11:44:24.495Z,5.30
2022-12-05T11:47:10.097Z,8.65
2022-12-05T11:50:34.547Z,20.27
2022-12-05T11:53:40.183Z,11.35
2022-12-05T11:56:22.080Z,33.72
2022-12-05T11:58:56.739Z,6.85
2022-12-05T12:01:52.854Z,5.00
2022-12-05T12:07:32.432Z,4.80
2022-12-05T12:10:00.255Z,3.95
2022-12-05T12:12:36.211Z,3.05
2022-12-05T12:15:23.260Z,8.60
2022-12-05T12:18:04.611Z,3.72
2022-12-05T12:20:40.994Z,8.30
2022-12-05T12:23:33.896Z,4.47
2022-12-05T12:26:56.057Z,5.18
2022-12-05T12:30:06.589Z,13.93
2022-12-05T12:32:33.363Z,12.18
2022-12-05T12:35:33.469Z,8.57
2022-12-05T12:38:39.155Z,7.22
2022-12-05T12:41:42.179Z,5.15
2022-12-05T12:44:43.167Z,5.13
2022-12-05T12:47:40.149Z,4.95
2022-12-05T12:50:22.545Z,6.80
2022-12-05T12:53:03.672Z,10.15
2022-12-05T12:55:56.455Z,26.58
2022-12-05T12:58:40.520Z,8.63
2022-12-05T13:01:20.710Z,8.65
2022-12-05T13:03:51.608Z,7.72
2022-12-05T13:06:31.109Z,11.32
2022-12-05T13:09:02.941Z,13.95
2022-12-05T13:11:36.702Z,10.75
2022-12-05T13:14:04.894Z,9.73
2022-12-05T13:16:45.610Z,26.63
2022-12-05T13:19:42.592Z,18.48
2022-12-05T13:22:11.316Z,16.20
2022-12-05T13:24:39.054Z,14.98
2022-12-05T13:27:09.352Z,9.77
2022-12-05T13:29:59.206Z,8.50
2022-12-05T13:32:43.814Z,8.95
2022-12-05T13:35:47.278Z,9.35
2022-12-05T13:38:56.686Z,10.15
2022-12-05T13:42:00.775Z,11.27
2022-12-05T13:44:55.868Z,22.60
2022-12-05T13:47:43.167Z,16.33
2022-12-05T13:50:41.462Z,12.75
2022-12-05T13:53:32.797Z,10.55
2022-12-05T13:56:04.287Z,12.02
2022-12-05T13:58:31.022Z,14.75
2022-12-05T14:01:37.003Z,13.80
2022-12-05T14:04:23.721Z,13.52
2022-12-05T14:06:50.517Z,14.05
2022-12-05T14:09:17.284Z,14.07
2022-12-05T14:12:12.430Z,16.33
2022-12-05T14:14:57.592Z,14.50
2022-12-05T14:17:27.424Z,14.40
2022-12-05T14:20:04.261Z,14.38
2022-12-05T14:23:05.394Z,16.08
2022-12-05T14:25:58.284Z,15.18
2022-12-05T14:29:07.921Z,18.88
2022-12-05T14:34:26.635Z,15.85
2022-12-05T14:36:58.975Z,15.80
2022-12-05T14:39:46.200Z,15.90
2022-12-05T14:42:24.164Z,50.47
2022-12-05T14:44:55.664Z,48.05
2022-12-05T14:47:29.123Z,32.22
2022-12-05T14:50:02.814Z,11.80
2022-12-05T14:52:31.915Z,17.63
2022-12-05T14:55:04.092Z,14.75
2022-12-05T14:57:34.848Z,29.67
2022-12-05T15:00:09.181Z,26.70
2022-12-05T15:02:46.103Z,20.85
2022-12-05T15:05:31.986Z,15.85
2022-12-05T15:08:01.794Z,17.42
2022-12-05T15:10:38.256Z,13.50
2022-12-05T15:13:17.817Z,16.15
2022-12-05T15:15:52.299Z,18.75
2022-12-05T15:18:53.302Z,20.50
2022-12-05T15:21:20.089Z,25.17
2022-12-05T15:24:02.640Z,35.38
2022-12-05T15:26:58.545Z,31.27
2022-12-05T15:29:28.016Z,31.02
2022-12-05T15:31:57.619Z,32.60
2022-12-05T15:34:28.022Z,33.88
2022-12-05T15:37:17.873Z,36.85
2022-12-05T15:40:01.882Z,41.30
2022-12-05T15:42:37.170Z,30.30
2022-12-05T15:45:16.115Z,30.70
2022-12-05T15:47:48.728Z,30.40
2022-12-05T15:50:28.472Z,28.88
2022-12-05T15:53:07.363Z,18.98
2022-12-05T15:55:44.998Z,25.48
2022-12-05T15:58:26.790Z,21.17
2022-12-05T16:01:01.804Z,19.02
2022-12-05T16:03:53.287Z,14.77
2022-12-05T16:06:24.298Z,13.68
2022-12-05T16:08:51.852Z,11.45
2022-12-05T16:11:19.396Z,14.48
2022-12-05T16:14:07.237Z,12.20
2022-12-05T16:16:37.725Z,13.45
2022-12-05T16:19:13.879Z,14.10
2022-12-05T16:21:46.904Z,15.25
2022-12-05T16:24:29.957Z,13.68
2022-12-05T16:27:13.167Z,8.93
2022-12-05T16:29:40.604Z,10.30
2022-12-05T16:32:21.023Z,11.60
2022-12-05T16:34:48.005Z,26.33
2022-12-05T16:37:26.197Z,12.13
2022-12-05T16:42:37.597Z,7.03
2022-12-05T16:45:05.038Z,11.32
2022-12-05T16:47:41.228Z,7.15
2022-12-05T16:50:22.606Z,8.40
2022-12-05T16:52:51.099Z,26.67
2022-12-05T16:55:17.992Z,11.50
2022-12-05T16:57:44.840Z,10.18
2022-12-05T17:00:15.511Z,8.23
2022-12-05T17:02:42.349Z,13.65
2022-12-05T17:05:15.365Z,10.35
2022-12-05T17:07:42.275Z,6.55
2022-12-05T17:10:09.316Z,6.53
2022-12-05T17:12:36.224Z,7.10
2022-12-05T17:15:03.120Z,10.52
2022-12-05T17:17:29.997Z,13.82
2022-12-05T17:19:56.806Z,10.60
2022-12-05T17:22:23.865Z,7.60
2022-12-05T17:24:50.681Z,6.85
2022-12-05T17:27:17.499Z,7.85
2022-12-05T17:29:44.413Z,5.82
2022-12-05T17:32:11.676Z,9.10
2022-12-05T17:34:38.567Z,7.60
2022-12-05T17:37:05.416Z,9.10
2022-12-05T17:39:32.361Z,7.80
2022-12-05T17:41:59.205Z,8.32
2022-12-05T17:44:26.113Z,8.13
2022-12-05T17:46:53.239Z,7.60
2022-12-05T17:49:20.248Z,6.60
2022-12-05T17:52:20.125Z,6.90
2022-12-05T17:54:34.763Z,7.25
2022-12-05T17:57:01.696Z,8.65
2022-12-05T17:59:28.560Z,33.72
2022-12-05T18:01:55.758Z,11.15
2022-12-05T18:04:23.513Z,8.88
2022-12-05T18:06:50.955Z,12.88
2022-12-05T18:09:17.982Z,15.52
2022-12-05T18:11:44.943Z,13.05
2022-12-05T18:14:11.752Z,12.85
2022-12-05T18:16:38.897Z,16.75
2022-12-05T18:19:05.838Z,11.82
2022-12-05T18:21:32.668Z,10.43
2022-12-05T18:24:00.095Z,12.93
2022-12-05T18:26:27.091Z,8.55
2022-12-05T18:28:56.506Z,7.55
2022-12-05T18:31:23.386Z,9.82
2022-12-05T18:33:50.283Z,8.73
2022-12-05T18:36:20.158Z,9.70
2022-12-05T18:38:51.748Z,7.40
2022-12-05T18:41:19.261Z,10.57
2022-12-05T18:43:46.140Z,9.98
2022-12-05T18:46:13.127Z,10.60
2022-12-05T18:48:44.862Z,11.25
2022-12-05T18:51:22.889Z,11.70
2022-12-05T18:53:52.672Z,11.55
2022-12-05T18:56:40.238Z,18.38
2022-12-05T18:59:13.171Z,17.98
2022-12-05T19:01:42.008Z,13.02
2022-12-05T19:04:12.490Z,19.48
2022-12-05T19:06:41.607Z,19.23
2022-12-05T19:09:13.006Z,13.82
2022-12-05T19:11:47.500Z,12.45
2022-12-05T19:14:15.891Z,24.38
2022-12-05T19:16:42.925Z,20.70
2022-12-05T19:19:12.389Z,5.63
2022-12-05T19:21:39.298Z,7.18
2022-12-05T19:24:08.375Z,6.57
2022-12-05T19:26:36.595Z,6.90
2022-12-05T19:29:03.770Z,6.43
2022-12-05T19:31:31.754Z,6.15
2022-12-05T19:34:00.686Z,10.23
2022-12-05T19:36:38.843Z,10.23
2022-12-05T19:39:11.972Z,6.57
2022-12-05T19:41:38.933Z,7.95
2022-12-05T19:44:06.259Z,6.97
2022-12-05T19:46:34.236Z,7.55
2022-12-05T19:49:04.569Z,11.15
2022-12-05T19:51:32.789Z,10.73
2022-12-05T19:54:01.511Z,10.68
2022-12-05T19:56:29.992Z,10.40
2022-12-05T19:58:58.374Z,7.63
2022-12-05T20:01:31.500Z,7.95
2022-12-05T20:04:04.313Z,6.70
2022-12-05T20:06:34.043Z,6.47
2022-12-05T20:09:01.638Z,5.15
2022-12-05T20:11:29.492Z,6.53
2022-12-05T20:13:58.316Z,7.38
2022-12-05T20:16:27.248Z,6.53
2022-12-05T20:18:58.113Z,5.53
2022-12-05T20:21:27.332Z,6.82
2022-12-05T20:23:54.676Z,5.80
2022-12-05T20:26:24.416Z,6.72
2022-12-05T20:28:51.500Z,5.28
2022-12-05T20:31:23.914Z,11.73
2022-12-05T20:33:52.545Z,16.40
2022-12-05T20:36:24.479Z,6.97
2022-12-05T20:39:17.994Z,9.38
2022-12-05T20:41:45.812Z,9.10
2022-12-05T20:44:17.260Z,13.95
2022-12-05T20:46:44.391Z,11.07
2022-12-05T20:49:14.473Z,13.52
2022-12-05T20:51:46.640Z,10.88
2022-12-05T20:54:14.535Z,12.93
2022-12-05T20:56:42.641Z,17.27
2022-12-05T20:59:11.789Z,14.38
2022-12-05T21:01:39.196Z,21.95
2022-12-05T21:04:08.110Z,24.70
2022-12-05T21:06:36.949Z,29.77
2022-12-05T21:09:06.611Z,30.90
2022-12-05T21:11:33.629Z,24.15
2022-12-05T21:14:00.697Z,13.60
2022-12-05T21:16:28.475Z,9.65
2022-12-05T21:18:56.391Z,9.32
2022-12-05T21:21:25.349Z,8.02
2022-12-05T21:24:00.549Z,7.88
2022-12-05T21:26:29.430Z,7.95
2022-12-05T21:28:56.513Z,6.50
2022-12-05T21:31:26.426Z,8.32
2022-12-05T21:33:55.654Z,25.10
2022-12-05T21:36:23.771Z,20.75
2022-12-05T21:38:56.038Z,8.07
2022-12-05T21:43:55.359Z,15.85
2022-12-05T21:46:26.574Z,8.60
2022-12-05T21:48:54.401Z,6.80
2022-12-05T21:51:22.624Z,29.80
2022-12-05T21:53:50.032Z,14.63
2022-12-05T21:56:19.352Z,13.57
2022-12-05T21:58:47.361Z,11.60
2022-12-05T22:01:20.076Z,11.07
2022-12-05T22:03:47.336Z,9.25
2022-12-05T22:06:16.927Z,7.85
2022-12-05T22:08:44.310Z,9.00
2022-12-05T22:11:20.267Z,6.70
2022-12-05T22:13:47.605Z,8.75
2022-12-05T22:16:15.374Z,9.23
2022-12-05T22:18:42.787Z,15.77
2022-12-05T22:21:15.133Z,16.27
2022-12-05T22:23:41.999Z,9.00
2022-12-05T22:26:14.978Z,7.03
2022-12-05T22:28:41.896Z,8.43
2022-12-05T22:31:12.098Z,7.32
2022-12-05T22:33:39.796Z,8.10
2022-12-05T22:36:09.459Z,10.38
2022-12-05T22:38:38.596Z,6.85
2022-12-05T22:41:11.164Z,9.30
2022-12-05T22:43:38.261Z,7.00
2022-12-05T22:46:10.306Z,10.65
2022-12-05T22:48:37.515Z,7.70
2022-12-05T22:51:06.009Z,6.90
2022-12-05T22:53:33.614Z,7.95
2022-12-05T22:56:07.594Z,10.02
2022-12-05T22:58:35.148Z,5.75
2022-12-05T23:01:20.130Z,6.50
2022-12-05T23:03:48.436Z,7.90
2022-12-05T23:06:17.365Z,8.55
2022-12-05T23:08:45.729Z,6.93
2022-12-05T23:11:12.723Z,11.70
2022-12-05T23:13:40.690Z,10.82
2022-12-05T23:16:08.559Z,8.45
2022-12-05T23:18:48.494Z,7.80
2022-12-05T23:21:19.969Z,9.77
2022-12-05T23:23:48.466Z,7.93
2022-12-05T23:26:16.009Z,9.23
2022-12-05T23:28:43.180Z,8.60
2022-12-05T23:31:11.402Z,12.48
2022-12-05T23:33:38.821Z,14.93
2022-12-05T23:36:07.106Z,10.88
2022-12-05T23:38:35.841Z,6.47
2022-12-05T23:41:08.284Z,7.68
2022-12-05T23:43:36.672Z,7.60
2022-12-05T23:46:05.623Z,10.85
2022-12-05T23:48:33.264Z,12.57
2022-12-05T23:51:04.055Z,8.40
2022-12-05T23:53:33.307Z,9.07
2022-12-05T23:56:09.713Z,8.80
2022-12-05T23:58:36.593Z,10.77
